Time;durP1;ratioP1;P1;durP2;ratioP2;P2;SDS_P1;SDS_P2;PMS_P1;PMS_P2;Temp;Humidity;BMP_temperature;BMP_pressure;BME280_temperature;BME280_humidity;BME280_pressure;Samples;Min_cycle;Max_cycle;Signal;HPM_P1;HPM_P2
2021/07/31 00:01:01;;;;;;;2.17;1.15;;;19.00;99.90;;;;;;5028810;28;20198;-96
2021/07/31 00:03:28;;;;;;;2.95;1.20;;;19.00;99.90;;;;;;5029200;28;20198;-95
2021/07/31 00:05:56;;;;;;;5.60;1.50;;;19.00;99.90;;;;;;5028525;28;20165;-95
2021/07/31 00:08:22;;;;;;;2.20;1.10;;;18.90;99.90;;;;;;5028735;28;20174;-95
2021/07/31 00:10:48;;;;;;;2.00;1.17;;;18.90;99.90;;;;;;5027702;28;20167;-96
2021/07/31 00:13:14;;;;;;;2.80;1.27;;;18.80;99.90;;;;;;5028409;28;20285;-95
2021/07/31 00:15:40;;;;;;;2.10;1.20;;;18.80;99.90;;;;;;5028712;28;20183;-96
2021/07/31 00:18:06;;;;;;;2.53;1.17;;;18.70;99.90;;;;;;5028527;28;20167;-95
2021/07/31 00:20:33;;;;;;;3.53;1.00;;;18.70;99.90;;;;;;5028642;28;20195;-96
2021/07/31 00:22:59;;;;;;;4.30;1.20;;;18.70;99.90;;;;;;5027887;28;20206;-96
2021/07/31 00:25:27;;;;;;;2.17;1.10;;;18.60;99.90;;;;;;5028524;28;20185;-96
2021/07/31 00:27:54;;;;;;;1.90;1.10;;;18.60;99.90;;;;;;5027684;28;20178;-95
2021/07/31 00:30:24;;;;;;;1.75;1.00;;;18.60;99.90;;;;;;5027157;28;20248;-96
2021/07/31 00:32:53;;;;;;;1.25;0.95;;;18.60;99.90;;;;;;5028025;28;20229;-96
2021/07/31 00:35:22;;;;;;;3.35;1.33;;;18.60;99.90;;;;;;5027457;28;20167;-96
2021/07/31 00:37:51;;;;;;;1.52;1.00;;;18.70;99.90;;;;;;5027767;28;20213;-96
2021/07/31 00:40:18;;;;;;;2.40;1.20;;;18.70;99.90;;;;;;5027127;28;20272;-96
2021/07/31 00:42:45;;;;;;;1.50;1.10;;;18.70;99.90;;;;;;5027065;28;20252;-96
2021/07/31 00:45:13;;;;;;;2.17;1.02;;;18.70;99.90;;;;;;5026992;28;20170;-96
2021/07/31 00:47:43;;;;;;;2.83;1.08;;;18.70;99.90;;;;;;5027203;28;20155;-96
2021/07/31 00:50:11;;;;;;;2.88;1.05;;;18.70;99.90;;;;;;5028312;28;20737;-94
2021/07/31 00:52:42;;;;;;;1.25;0.90;;;18.70;99.90;;;;;;5027263;28;20202;-95
2021/07/31 00:55:16;;;;;;;3.97;0.90;;;18.70;99.90;;;;;;5008398;28;20251;-96
2021/07/31 00:57:47;;;;;;;1.40;0.80;;;18.60;99.90;;;;;;5008278;28;20239;-95
2021/07/31 01:00:15;;;;;;;1.77;0.90;;;18.60;99.90;;;;;;5008572;28;20201;-95
2021/07/31 01:02:47;;;;;;;2.25;1.05;;;18.60;99.90;;;;;;5008584;28;20195;-96
2021/07/31 01:05:19;;;;;;;1.65;1.10;;;18.70;99.90;;;;;;5009436;28;20170;-96
2021/07/31 01:07:59;;;;;;;2.13;0.95;;;18.60;99.90;;;;;;5028278;28;20160;-96
2021/07/31 01:10:32;;;;;;;2.15;0.90;;;18.60;99.90;;;;;;5010685;28;20202;-95
2021/07/31 01:13:01;;;;;;;1.33;0.90;;;18.60;99.90;;;;;;5010990;28;20295;-96
2021/07/31 01:15:28;;;;;;;2.80;1.05;;;18.60;99.90;;;;;;5011312;28;20179;-96
2021/07/31 01:17:57;;;;;;;2.90;1.10;;;18.60;99.90;;;;;;5010305;28;20607;-96
2021/07/31 01:20:25;;;;;;;1.95;1.20;;;18.50;99.90;;;;;;5009476;28;20205;-96
2021/07/31 01:22:55;;;;;;;2.60;1.20;;;18.50;99.90;;;;;;5009557;28;20249;-96
2021/07/31 01:25:24;;;;;;;2.10;1.42;;;18.50;99.90;;;;;;5010046;28;20683;-96
2021/07/31 01:27:51;;;;;;;2.30;1.15;;;18.40;99.90;;;;;;5010687;28;20180;-96
2021/07/31 01:30:22;;;;;;;2.53;1.00;;;18.40;99.90;;;;;;5010954;28;20171;-96
2021/07/31 01:32:50;;;;;;;2.90;1.17;;;18.40;99.90;;;;;;5010665;28;20203;-96
2021/07/31 01:35:17;;;;;;;2.30;1.02;;;18.40;99.90;;;;;;5009320;28;20218;-96
2021/07/31 01:37:45;;;;;;;2.10;1.00;;;18.40;99.90;;;;;;5009726;28;20175;-96
2021/07/31 01:40:17;;;;;;;4.28;1.02;;;18.40;99.90;;;;;;5010840;28;20192;-96
2021/07/31 01:42:48;;;;;;;3.15;1.52;;;18.30;99.90;;;;;;5010586;28;20237;-96
2021/07/31 01:45:20;;;;;;;3.65;1.20;;;18.30;99.90;;;;;;5009720;28;20179;-95
2021/07/31 01:47:48;;;;;;;2.17;1.20;;;18.30;99.90;;;;;;5005202;28;20203;-95
2021/07/31 01:50:14;;;;;;;3.92;1.13;;;18.30;99.90;;;;;;5006724;28;20179;-95
2021/07/31 01:52:40;;;;;;;3.45;1.23;;;18.20;99.90;;;;;;5005196;28;20686;-95
2021/07/31 01:55:10;;;;;;;3.28;1.15;;;18.20;99.90;;;;;;5024103;28;20213;-95
2021/07/31 01:57:37;;;;;;;2.03;1.08;;;18.30;99.90;;;;;;5028870;28;20638;-96
2021/07/31 02:00:04;;;;;;;2.55;1.23;;;18.10;99.90;;;;;;5027637;28;20233;-95
2021/07/31 02:02:32;;;;;;;2.70;1.10;;;18.10;99.90;;;;;;5028969;28;20678;-96
2021/07/31 02:05:01;;;;;;;2.65;1.00;;;18.10;99.90;;;;;;5029692;28;20539;-96
2021/07/31 02:07:28;;;;;;;6.97;1.40;;;18.10;99.90;;;;;;5028794;28;20174;-96
2021/07/31 02:10:00;;;;;;;4.10;1.20;;;18.10;99.90;;;;;;5029911;28;20178;-96
2021/07/31 02:12:32;;;;;;;1.88;1.08;;;18.10;99.90;;;;;;5028776;28;20630;-96
2021/07/31 02:15:07;;;;;;;3.55;1.17;;;18.10;99.90;;;;;;5027540;28;20181;-96
2021/07/31 02:17:45;;;;;;;2.50;1.10;;;18.00;99.90;;;;;;5028440;28;20174;-96
2021/07/31 02:20:19;;;;;;;1.83;1.00;;;18.10;99.90;;;;;;5028287;28;20202;-96
2021/07/31 02:22:52;;;;;;;5.20;1.27;;;18.00;99.90;;;;;;5028804;28;20630;-96
2021/07/31 02:25:19;;;;;;;3.90;0.85;;;18.00;99.90;;;;;;5027544;28;20174;-96
2021/07/31 02:27:50;;;;;;;1.63;0.98;;;17.90;99.90;;;;;;5028279;28;20253;-96
2021/07/31 02:30:16;;;;;;;3.10;1.02;;;17.90;99.90;;;;;;5028051;28;20300;-96
2021/07/31 02:32:44;;;;;;;1.70;1.00;;;17.80;99.90;;;;;;5028652;28;20238;-96
2021/07/31 02:35:12;;;;;;;2.45;1.08;;;17.90;99.90;;;;;;5030363;28;20198;-96
2021/07/31 02:37:39;;;;;;;2.40;1.33;;;17.80;99.90;;;;;;5030779;28;20209;-96
2021/07/31 02:40:13;;;;;;;2.53;0.82;;;17.80;99.90;;;;;;5031073;28;20213;-96
2021/07/31 02:42:39;;;;;;;2.15;1.13;;;17.80;99.90;;;;;;5013415;28;20217;-95
2021/07/31 02:45:07;;;;;;;1.85;1.05;;;17.70;99.90;;;;;;5027711;28;20177;-96
2021/07/31 02:47:35;;;;;;;2.45;1.10;;;17.70;99.90;;;;;;5028871;28;20626;-96
2021/07/31 02:50:23;;;;;;;4.05;1.33;;;17.60;99.90;;;;;;5026607;28;20178;-96
2021/07/31 02:52:49;;;;;;;3.42;1.00;;;17.50;99.90;;;;;;5027434;28;20194;-96
2021/07/31 02:55:17;;;;;;;1.60;1.10;;;17.50;99.90;;;;;;5029081;28;20186;-96
2021/07/31 02:57:44;;;;;;;4.03;1.00;;;17.50;99.90;;;;;;5029296;28;20552;-96
2021/07/31 03:00:10;;;;;;;4.85;1.63;;;17.50;99.90;;;;;;5027798;28;20654;-96
2021/07/31 03:02:46;;;;;;;6.03;1.08;;;17.50;99.90;;;;;;5024233;28;20195;-96
2021/07/31 03:05:13;;;;;;;5.30;1.40;;;17.50;99.90;;;;;;5023016;28;20178;-95
2021/07/31 03:07:39;;;;;;;4.65;1.17;;;17.50;99.90;;;;;;5022586;28;20187;-95
2021/07/31 03:10:12;;;;;;;4.47;1.10;;;17.50;99.90;;;;;;5023120;28;20170;-96
2021/07/31 03:12:40;;;;;;;2.00;1.00;;;17.50;99.90;;;;;;5027288;28;20213;-96
2021/07/31 03:15:11;;;;;;;2.95;1.05;;;17.50;99.90;;;;;;5027174;28;20190;-96
2021/07/31 03:17:39;;;;;;;3.67;0.95;;;17.50;99.90;;;;;;5026971;28;20175;-96
2021/07/31 03:20:05;;;;;;;6.03;1.25;;;17.50;99.90;;;;;;5024818;28;20191;-96
2021/07/31 03:22:34;;;;;;;4.45;1.30;;;17.50;99.90;;;;;;5025998;28;20218;-96
2021/07/31 03:25:04;;;;;;;1.83;1.00;;;17.50;99.90;;;;;;5026349;28;20167;-96
2021/07/31 03:27:38;;;;;;;2.33;1.23;;;17.40;99.90;;;;;;5028667;28;20622;-96
2021/07/31 03:30:08;;;;;;;3.13;1.10;;;17.30;99.90;;;;;;5029516;28;20184;-96
2021/07/31 03:32:35;;;;;;;3.75;1.02;;;17.30;99.90;;;;;;5028625;28;20210;-96
2021/07/31 03:35:02;;;;;;;6.20;1.20;;;17.30;99.90;;;;;;5029056;28;20171;-96
2021/07/31 03:37:28;;;;;;;2.50;1.15;;;17.20;99.90;;;;;;5029877;28;20171;-96
2021/07/31 03:39:54;;;;;;;1.48;0.90;;;17.20;99.90;;;;;;5028675;28;20194;-96
2021/07/31 03:42:22;;;;;;;5.15;1.08;;;17.20;99.90;;;;;;5029053;28;20163;-96
2021/07/31 03:45:01;;;;;;;4.80;1.38;;;17.20;99.90;;;;;;5029319;28;20170;-96
2021/07/31 03:47:28;;;;;;;1.58;0.98;;;17.20;99.90;;;;;;5029211;28;20178;-96
2021/07/31 03:50:03;;;;;;;4.03;0.95;;;17.20;99.90;;;;;;5028680;28;20525;-96
2021/07/31 03:52:31;;;;;;;5.85;0.98;;;17.10;99.90;;;;;;5029306;28;20208;-96
2021/07/31 03:54:59;;;;;;;2.50;0.90;;;17.10;99.90;;;;;;5028902;28;20226;-96
2021/07/31 03:57:27;;;;;;;3.35;1.05;;;17.10;99.90;;;;;;5028767;28;20205;-96
2021/07/31 03:59:55;;;;;;;3.38;1.00;;;17.10;99.90;;;;;;5029928;28;20207;-96
2021/07/31 04:02:22;;;;;;;2.38;1.15;;;17.10;99.90;;;;;;5029977;28;20182;-96
2021/07/31 04:04:48;;;;;;;3.85;1.30;;;17.10;99.90;;;;;;5029476;28;20181;-96
2021/07/31 04:07:16;;;;;;;2.35;0.80;;;17.10;99.90;;;;;;5032967;28;20198;-96
2021/07/31 04:09:45;;;;;;;3.63;1.00;;;17.10;99.90;;;;;;5032465;28;20236;-96
2021/07/31 04:12:27;;;;;;;4.05;1.15;;;17.20;99.90;;;;;;5032420;28;20170;-96
2021/07/31 04:15:04;;;;;;;1.90;0.93;;;17.10;99.90;;;;;;5031262;28;20181;-96
2021/07/31 04:17:30;;;;;;;5.82;1.20;;;17.20;99.90;;;;;;5032802;28;20166;-96
2021/07/31 04:20:00;;;;;;;4.63;1.10;;;17.20;99.90;;;;;;5033089;28;20273;-96
2021/07/31 04:22:32;;;;;;;4.35;1.10;;;17.20;99.90;;;;;;5032090;28;20182;-96
2021/07/31 04:25:01;;;;;;;4.18;1.00;;;17.20;99.90;;;;;;5032869;28;20522;-96
2021/07/31 04:27:28;;;;;;;5.32;1.13;;;17.20;99.90;;;;;;5032989;28;20198;-96
2021/07/31 04:29:57;;;;;;;2.15;0.90;;;17.20;99.90;;;;;;5033256;28;20185;-96
2021/07/31 04:32:25;;;;;;;2.42;0.70;;;17.20;99.90;;;;;;5052421;28;20163;-96
2021/07/31 04:35:08;;;;;;;2.55;0.90;;;17.30;99.90;;;;;;5034226;28;20209;-96
2021/07/31 04:37:36;;;;;;;4.70;1.00;;;17.20;99.90;;;;;;5033340;28;20225;-96
2021/07/31 04:40:10;;;;;;;3.20;1.02;;;17.20;99.90;;;;;;5033056;28;20202;-96
2021/07/31 04:42:36;;;;;;;2.80;0.80;;;17.20;99.90;;;;;;5033076;28;20221;-96
2021/07/31 04:45:06;;;;;;;2.92;0.90;;;17.30;99.90;;;;;;5033003;28;20179;-96
2021/07/31 04:47:45;;;;;;;1.90;0.80;;;17.30;99.90;;;;;;5032520;28;20174;-96
2021/07/31 04:50:13;;;;;;;1.63;0.88;;;17.30;99.90;;;;;;5033234;28;20174;-96
2021/07/31 04:52:43;;;;;;;3.78;0.95;;;17.40;99.90;;;;;;5034568;28;20229;-96
2021/07/31 04:55:15;;;;;;;6.07;1.10;;;17.40;99.90;;;;;;5032974;28;20210;-96
2021/07/31 04:57:43;;;;;;;2.38;1.00;;;17.50;99.90;;;;;;5033012;28;20209;-96
2021/07/31 05:00:11;;;;;;;3.70;1.13;;;17.60;99.90;;;;;;5031679;28;20298;-96
2021/07/31 05:02:41;;;;;;;2.35;0.93;;;17.60;99.90;;;;;;5032711;28;20217;-96
2021/07/31 05:05:19;;;;;;;2.25;0.90;;;17.60;99.90;;;;;;5034262;28;20197;-96
2021/07/31 05:08:04;;;;;;;4.22;1.15;;;17.70;99.90;;;;;;5032429;28;20201;-96
2021/07/31 05:10:31;;;;;;;5.43;1.05;;;17.70;99.90;;;;;;5031978;28;20201;-96
2021/07/31 05:13:13;;;;;;;3.88;0.80;;;17.70;99.90;;;;;;5034651;28;20203;-96
2021/07/31 05:15:42;;;;;;;2.42;1.00;;;17.80;99.90;;;;;;5034734;28;20195;-96
2021/07/31 05:18:34;;;;;;;3.53;1.08;;;17.80;99.90;;;;;;5034716;28;20242;-96
2021/07/31 05:21:00;;;;;;;4.32;1.00;;;17.80;99.90;;;;;;5035059;28;20221;-96
2021/07/31 05:23:28;;;;;;;4.07;1.00;;;17.80;99.90;;;;;;5034414;28;20199;-96
2021/07/31 05:26:05;;;;;;;5.53;1.35;;;17.80;99.90;;;;;;5035419;28;20185;-96
2021/07/31 05:28:33;;;;;;;4.45;1.00;;;17.80;99.90;;;;;;5034737;28;20242;-96
2021/07/31 05:31:02;;;;;;;2.35;0.95;;;17.80;99.90;;;;;;5053898;28;20149;-96
2021/07/31 05:33:30;;;;;;;3.10;0.90;;;17.80;99.90;;;;;;5034408;28;20205;-96
2021/07/31 05:35:56;;;;;;;4.30;0.90;;;17.80;99.90;;;;;;5035221;28;20158;-96
2021/07/31 05:38:28;;;;;;;2.75;1.20;;;17.90;99.90;;;;;;5032903;28;20190;-96
2021/07/31 05:41:06;;;;;;;2.35;0.82;;;17.90;99.90;;;;;;5034175;28;20324;-96
2021/07/31 05:43:44;;;;;;;4.97;1.30;;;17.90;99.90;;;;;;5018445;28;20233;-96
2021/07/31 05:46:10;;;;;;;7.40;1.10;;;17.90;99.90;;;;;;5032518;28;20619;-95
2021/07/31 05:48:38;;;;;;;2.17;0.90;;;17.90;99.90;;;;;;5034971;28;20182;-96
2021/07/31 05:51:04;;;;;;;2.92;1.02;;;17.90;99.90;;;;;;5036698;28;20187;-96
2021/07/31 05:53:33;;;;;;;2.90;0.93;;;18.00;99.90;;;;;;5034803;28;20303;-96
2021/07/31 05:56:06;;;;;;;1.33;0.90;;;18.00;99.90;;;;;;5019139;28;20800;-96
2021/07/31 05:58:40;;;;;;;6.43;1.08;;;18.10;99.90;;;;;;5035006;28;20201;-96
2021/07/31 06:01:16;;;;;;;4.25;1.00;;;18.10;99.90;;;;;;5017154;28;20251;-96
2021/07/31 06:03:47;;;;;;;5.82;1.10;;;18.20;99.90;;;;;;5037127;28;20210;-96
2021/07/31 06:06:16;;;;;;;2.78;0.90;;;18.20;99.90;;;;;;5036623;28;20170;-96
2021/07/31 06:08:45;;;;;;;3.20;0.70;;;18.20;99.90;;;;;;5017800;28;20182;-96
2021/07/31 06:11:17;;;;;;;6.32;1.15;;;18.30;99.90;;;;;;5036394;28;20174;-96
2021/07/31 06:13:47;;;;;;;3.85;0.90;;;18.30;99.90;;;;;;5020812;28;20207;-96
2021/07/31 06:16:14;;;;;;;3.60;1.20;;;18.40;99.90;;;;;;5036205;28;20158;-96
2021/07/31 06:18:42;;;;;;;4.50;1.17;;;18.40;99.90;;;;;;5036308;28;20178;-96
2021/07/31 06:21:27;;;;;;;3.85;1.05;;;18.50;99.90;;;;;;5035528;28;20198;-96
2021/07/31 06:24:19;;;;;;;3.53;1.17;;;18.60;99.90;;;;;;5033541;28;20209;-96
2021/07/31 06:26:58;;;;;;;3.60;1.00;;;18.60;99.90;;;;;;5053580;28;20162;-96
2021/07/31 06:29:25;;;;;;;6.40;1.00;;;18.60;99.90;;;;;;5032640;28;20217;-96
2021/07/31 06:31:53;;;;;;;4.18;1.00;;;18.50;99.90;;;;;;5035478;28;20662;-96
2021/07/31 06:34:36;;;;;;;6.07;1.10;;;18.60;99.90;;;;;;5036249;28;20186;-96
2021/07/31 06:37:10;;;;;;;4.65;1.00;;;18.50;99.90;;;;;;5018609;28;20172;-96
2021/07/31 06:39:57;;;;;;;4.30;1.05;;;18.60;99.90;;;;;;5037246;28;20158;-96
2021/07/31 06:42:52;;;;;;;4.90;1.10;;;18.50;99.90;;;;;;5035983;28;20174;-96
2021/07/31 06:45:27;;;;;;;5.40;1.05;;;18.40;99.90;;;;;;5035463;28;20178;-96
2021/07/31 06:48:06;;;;;;;2.80;1.00;;;18.40;99.90;;;;;;5036063;28;20162;-96
2021/07/31 06:50:37;;;;;;;3.55;1.25;;;18.50;99.90;;;;;;5037701;28;20205;-96
2021/07/31 06:53:09;;;;;;;2.85;1.10;;;18.50;99.90;;;;;;5037143;28;20210;-96
2021/07/31 06:55:47;;;;;;;2.40;1.00;;;18.70;99.90;;;;;;5035143;28;20215;-96
2021/07/31 06:58:18;;;;;;;4.57;0.95;;;18.80;99.90;;;;;;5037421;28;20187;-96
2021/07/31 07:00:47;;;;;;;4.97;1.00;;;18.90;99.90;;;;;;5037053;28;20220;-96
2021/07/31 07:03:32;;;;;;;6.03;0.88;;;18.90;99.70;;;;;;5041604;28;20227;-96
2021/07/31 07:06:15;;;;;;;5.97;1.10;;;19.00;99.20;;;;;;5040676;28;20218;-96
2021/07/31 07:08:43;;;;;;;4.97;0.85;;;19.10;98.90;;;;;;5022068;28;20181;-96
2021/07/31 07:11:30;;;;;;;2.53;0.90;;;19.20;99.10;;;;;;5037989;28;20206;-96
2021/07/31 07:14:04;;;;;;;5.07;0.80;;;19.30;99.00;;;;;;5038584;28;20198;-96
2021/07/31 07:16:55;;;;;;;2.97;0.90;;;19.40;99.10;;;;;;5037872;28;20162;-96
2021/07/31 07:19:24;;;;;;;3.65;1.35;;;19.60;98.50;;;;;;5036748;28;20175;-96
2021/07/31 07:21:53;;;;;;;2.50;1.08;;;19.70;97.70;;;;;;5021674;28;20229;-95
2021/07/31 07:24:25;;;;;;;3.78;1.25;;;19.70;97.90;;;;;;5037732;28;20202;-96
2021/07/31 07:26:58;;;;;;;5.68;1.17;;;19.80;98.20;;;;;;5036686;28;20178;-96
2021/07/31 07:29:41;;;;;;;5.63;0.90;;;19.90;97.60;;;;;;5037666;28;20190;-96
2021/07/31 07:32:46;;;;;;;4.25;0.95;;;19.90;97.30;;;;;;5038471;28;20181;-96
2021/07/31 07:35:45;;;;;;;3.08;1.02;;;19.80;97.60;;;;;;5024663;28;20194;-96
2021/07/31 07:38:19;;;;;;;7.15;1.00;;;19.60;97.50;;;;;;5039013;28;20166;-96
2021/07/31 07:40:55;;;;;;;5.05;1.10;;;19.40;97.80;;;;;;5037435;28;20250;-96
2021/07/31 07:43:27;;;;;;;6.30;1.20;;;19.30;98.10;;;;;;5036029;28;20289;-96
2021/07/31 07:45:58;;;;;;;7.47;1.00;;;19.30;98.40;;;;;;5034565;28;20198;-96
2021/07/31 07:48:24;;;;;;;3.47;0.80;;;19.30;98.50;;;;;;5032132;28;20190;-96
2021/07/31 07:50:56;;;;;;;3.03;0.93;;;19.30;98.50;;;;;;5047776;28;20248;-96
2021/07/31 07:53:23;;;;;;;5.63;0.95;;;19.20;98.30;;;;;;5032756;28;20201;-96
2021/07/31 07:55:49;;;;;;;4.78;1.05;;;19.20;98.70;;;;;;5030022;28;20218;-96
2021/07/31 07:58:37;;;;;;;3.08;0.90;;;19.20;98.50;;;;;;5014157;28;20190;-96
2021/07/31 08:01:19;;;;;;;2.95;1.08;;;19.30;98.10;;;;;;5030202;28;20206;-96
2021/07/31 08:03:52;;;;;;;7.43;0.80;;;19.60;97.80;;;;;;5031794;28;20240;-95
2021/07/31 08:06:37;;;;;;;1.75;0.90;;;19.80;96.70;;;;;;5043455;28;20193;-95
2021/07/31 08:09:05;;;;;;;10.50;1.00;;;20.00;96.00;;;;;;5030007;28;20242;-95
2021/07/31 08:11:32;;;;;;;6.68;0.93;;;20.00;95.10;;;;;;5026093;28;20190;-96
2021/07/31 08:14:04;;;;;;;2.80;0.77;;;20.00;95.20;;;;;;5026029;28;20293;-96
2021/07/31 08:16:40;;;;;;;4.25;1.00;;;20.20;96.10;;;;;;5025438;28;20174;-95
2021/07/31 08:19:17;;;;;;;5.32;0.70;;;20.50;95.70;;;;;;5029908;28;20638;-96
2021/07/31 08:21:50;;;;;;;4.70;0.88;;;20.60;95.10;;;;;;5034456;28;20206;-95
2021/07/31 08:24:16;;;;;;;3.60;0.95;;;20.50;95.50;;;;;;5033856;28;20194;-96
2021/07/31 08:26:50;;;;;;;6.43;0.93;;;20.50;95.20;;;;;;5035318;28;20178;-96
2021/07/31 08:29:17;;;;;;;6.20;1.17;;;20.60;95.70;;;;;;5029533;28;20178;-96
2021/07/31 08:31:55;;;;;;;6.40;0.80;;;20.60;95.00;;;;;;5017411;28;20201;-95
2021/07/31 08:34:35;;;;;;;6.10;0.93;;;20.50;95.00;;;;;;5033079;28;20226;-96
2021/07/31 08:37:02;;;;;;;2.83;0.80;;;20.30;95.60;;;;;;5034572;28;20237;-96
2021/07/31 08:40:06;;;;;;;3.88;1.13;;;20.20;95.40;;;;;;5034032;28;20175;-96
2021/07/31 08:42:36;;;;;;;4.60;0.90;;;20.00;95.40;;;;;;5035378;28;20214;-96
2021/07/31 08:45:09;;;;;;;5.82;1.00;;;19.90;95.60;;;;;;5050897;28;20162;-96
2021/07/31 08:48:06;;;;;;;6.25;1.05;;;19.80;95.90;;;;;;5032894;28;20184;-96
2021/07/31 08:50:33;;;;;;;5.15;0.88;;;19.80;96.50;;;;;;5035182;28;20188;-96
2021/07/31 08:53:00;;;;;;;5.95;1.02;;;19.70;96.10;;;;;;5033647;28;20195;-96
2021/07/31 08:55:34;;;;;;;2.42;0.70;;;19.80;96.40;;;;;;5032590;28;20219;-96
2021/07/31 08:58:08;;;;;;;9.45;1.60;;;19.80;96.30;;;;;;5034721;28;20159;-96
2021/07/31 09:00:38;;;;;;;4.10;0.90;;;19.70;95.80;;;;;;5032981;28;20218;-96
2021/07/31 09:03:15;;;;;;;2.15;0.80;;;19.60;96.40;;;;;;5034330;28;20209;-96
2021/07/31 09:05:42;;;;;;;2.42;0.80;;;19.50;96.60;;;;;;5029969;28;20222;-96
2021/07/31 09:08:27;;;;;;;3.65;0.80;;;19.40;96.80;;;;;;5036237;28;20198;-96
2021/07/31 09:11:04;;;;;;;2.33;0.90;;;19.30;96.80;;;;;;5033752;28;20639;-95
2021/07/31 09:13:32;;;;;;;3.22;1.00;;;19.20;97.60;;;;;;5033691;28;20182;-96
2021/07/31 09:16:15;;;;;;;4.85;0.85;;;19.10;97.60;;;;;;5017210;28;20225;-96
2021/07/31 09:18:44;;;;;;;7.07;0.88;;;19.00;97.50;;;;;;5033326;28;20178;-95
2021/07/31 09:21:16;;;;;;;5.55;0.90;;;19.10;97.70;;;;;;5032461;28;20269;-96
2021/07/31 09:23:53;;;;;;;4.47;1.20;;;19.20;98.00;;;;;;5032638;28;20292;-95
2021/07/31 09:26:25;;;;;;;3.05;0.75;;;19.30;97.40;;;;;;5034038;28;20190;-96
2021/07/31 09:29:08;;;;;;;4.68;1.02;;;19.30;97.60;;;;;;5034637;28;20230;-96
2021/07/31 09:31:56;;;;;;;3.85;1.00;;;19.30;97.50;;;;;;5034287;28;20170;-96
2021/07/31 09:34:45;;;;;;;4.88;0.88;;;19.30;97.60;;;;;;5033265;28;20203;-96
2021/07/31 09:37:28;;;;;;;4.70;0.80;;;19.30;97.90;;;;;;5034186;28;20201;-96
2021/07/31 09:40:29;;;;;;;2.63;0.85;;;19.30;97.70;;;;;;5033406;28;20186;-96
2021/07/31 09:43:19;;;;;;;8.27;1.45;;;19.30;98.20;;;;;;5032921;28;20190;-95
2021/07/31 09:45:48;;;;;;;3.80;0.95;;;19.30;98.60;;;;;;5033682;28;20170;-96
2021/07/31 09:51:42;;;;;;;3.30;1.27;;;19.20;98.00;;;;;;5049890;28;20193;-94
2021/07/31 09:54:20;;;;;;;5.43;1.00;;;19.20;99.50;;;;;;5032172;28;20573;-96
2021/07/31 09:56:54;;;;;;;2.75;0.80;;;19.30;99.90;;;;;;5034426;28;20212;-96
2021/07/31 10:00:00;;;;;;;5.82;1.15;;;19.80;99.90;;;;;;5049519;28;20170;-96
2021/07/31 10:02:44;;;;;;;2.47;1.10;;;20.30;97.40;;;;;;5031367;28;20247;-96
2021/07/31 10:05:11;;;;;;;3.58;1.10;;;20.70;97.30;;;;;;5033609;28;20269;-96
2021/07/31 10:07:40;;;;;;;2.10;0.95;;;20.70;97.40;;;;;;5016499;28;20182;-95
2021/07/31 10:10:17;;;;;;;5.40;1.00;;;20.70;97.80;;;;;;5033516;28;20190;-96
2021/07/31 10:12:46;;;;;;;4.57;1.02;;;20.60;96.80;;;;;;5049009;28;20249;-94
2021/07/31 10:15:27;;;;;;;3.20;1.00;;;20.40;96.80;;;;;;5031370;28;20197;-95
2021/07/31 10:17:57;;;;;;;2.90;0.80;;;20.40;97.50;;;;;;5034312;28;20681;-96
2021/07/31 10:20:38;;;;;;;3.92;1.00;;;20.30;97.30;;;;;;5033713;28;20198;-96
2021/07/31 10:23:08;;;;;;;2.28;0.80;;;20.10;97.00;;;;;;5016832;28;20202;-96
2021/07/31 10:25:36;;;;;;;4.45;0.90;;;20.10;97.40;;;;;;5034238;28;20179;-96
2021/07/31 10:28:38;;;;;;;3.65;1.10;;;20.00;97.70;;;;;;5034398;28;20171;-96
2021/07/31 10:31:30;;;;;;;4.30;1.13;;;20.20;99.30;;;;;;5035342;28;20174;-96
2021/07/31 10:34:00;;;;;;;3.55;0.90;;;20.60;97.30;;;;;;5035123;28;20259;-96
2021/07/31 10:36:38;;;;;;;2.05;1.13;;;20.90;96.50;;;;;;5035606;28;20204;-96
2021/07/31 10:39:28;;;;;;;2.15;0.90;;;20.90;96.10;;;;;;5038693;28;20181;-96
2021/07/31 10:42:03;;;;;;;5.68;1.00;;;20.80;96.80;;;;;;5038634;28;20190;-96
2021/07/31 10:44:30;;;;;;;5.82;1.20;;;20.90;96.00;;;;;;5055643;28;20219;-95
2021/07/31 10:47:33;;;;;;;9.50;1.55;;;20.90;95.60;;;;;;5036065;28;20217;-94
2021/07/31 10:50:28;;;;;;;3.55;1.00;;;20.90;96.00;;;;;;5036931;28;20174;-96
2021/07/31 10:53:21;;;;;;;4.40;1.10;;;21.10;96.60;;;;;;5036170;28;20212;-96
2021/07/31 10:56:03;;;;;;;4.18;1.10;;;21.10;96.60;;;;;;5035017;28;20225;-95
2021/07/31 10:58:32;;;;;;;5.43;1.40;;;21.00;96.50;;;;;;5035604;28;20228;-96
2021/07/31 11:01:40;;;;;;;2.83;1.25;;;20.80;96.10;;;;;;5038014;28;20207;-96
2021/07/31 11:04:07;;;;;;;4.20;1.00;;;20.60;96.10;;;;;;5036822;28;20205;-96
2021/07/31 11:07:10;;;;;;;6.28;1.20;;;20.40;96.10;;;;;;5034651;28;20242;-96
2021/07/31 11:09:39;;;;;;;3.30;1.00;;;20.30;96.60;;;;;;5035411;28;20173;-96
2021/07/31 11:12:59;;;;;;;2.85;1.00;;;20.30;96.60;;;;;;5035211;28;20189;-96
2021/07/31 11:15:33;;;;;;;2.00;1.10;;;20.40;96.60;;;;;;5033475;28;20170;-96
2021/07/31 11:18:04;;;;;;;2.85;0.90;;;20.80;96.80;;;;;;5033472;28;20245;-96
2021/07/31 11:20:45;;;;;;;1.98;1.00;;;21.10;96.40;;;;;;5035928;28;20210;-95
2021/07/31 11:23:20;;;;;;;4.75;1.63;;;21.30;96.10;;;;;;5049621;28;20206;-96
2021/07/31 11:25:58;;;;;;;3.88;1.02;;;21.40;95.60;;;;;;5034739;28;20167;-96
2021/07/31 11:28:28;;;;;;;16.67;1.88;;;21.30;95.20;;;;;;5035832;28;20182;-96
2021/07/31 11:30:56;;;;;;;5.10;1.00;;;21.10;95.20;;;;;;5033536;28;20266;-96
2021/07/31 11:33:29;;;;;;;7.70;1.17;;;21.20;95.30;;;;;;5034698;28;20198;-96
2021/07/31 11:36:17;;;;;;;3.72;0.85;;;21.20;95.30;;;;;;5033427;28;20704;-96
2021/07/31 11:38:43;;;;;;;5.93;1.00;;;21.10;95.00;;;;;;5032990;28;20187;-96
2021/07/31 11:41:15;;;;;;;7.60;1.10;;;21.00;94.80;;;;;;5033478;28;20205;-96
2021/07/31 11:46:48;;;;;;;4.60;0.93;;;20.70;95.60;;;;;;5037841;28;20181;-94
2021/07/31 11:49:37;;;;;;;4.38;1.30;;;20.70;95.20;;;;;;5027281;28;20170;-95
2021/07/31 11:52:12;;;;;;;6.38;1.00;;;20.60;95.60;;;;;;5026305;28;20644;-96
2021/07/31 11:54:54;;;;;;;3.58;0.90;;;20.50;95.50;;;;;;5026849;28;20189;-95
2021/07/31 11:57:20;;;;;;;4.72;1.05;;;20.40;95.80;;;;;;5027749;28;20210;-95
2021/07/31 11:59:46;;;;;;;8.02;1.20;;;20.40;95.40;;;;;;5027562;28;20190;-95
2021/07/31 12:02:31;;;;;;;7.70;1.17;;;20.30;95.60;;;;;;5030823;28;20178;-96
2021/07/31 12:04:57;;;;;;;3.38;1.00;;;20.30;96.20;;;;;;5031183;28;20257;-96
2021/07/31 12:07:34;;;;;;;5.65;1.20;;;20.40;96.20;;;;;;5030292;28;20202;-96
2021/07/31 12:10:13;;;;;;;2.65;1.00;;;20.40;96.20;;;;;;5029125;28;20170;-96
2021/07/31 12:12:47;;;;;;;8.02;1.20;;;20.80;96.70;;;;;;5030321;28;20202;-95
2021/07/31 12:15:26;;;;;;;6.97;1.08;;;21.10;95.40;;;;;;5032289;28;20201;-96
2021/07/31 12:17:59;;;;;;;4.40;1.10;;;21.30;94.80;;;;;;5032285;28;20174;-96
2021/07/31 12:20:43;;;;;;;4.47;1.30;;;21.60;94.60;;;;;;5031865;28;20210;-95
2021/07/31 12:23:13;;;;;;;5.88;1.02;;;21.80;94.90;;;;;;5033192;28;20198;-95
2021/07/31 12:25:59;;;;;;;5.85;0.95;;;21.90;94.70;;;;;;5034487;28;20177;-96
2021/07/31 12:28:45;;;;;;;9.20;1.30;;;21.90;95.40;;;;;;5034556;28;20167;-94
2021/07/31 12:31:34;;;;;;;3.92;0.85;;;22.00;94.50;;;;;;5030592;28;20500;-96
2021/07/31 12:34:12;;;;;;;11.73;1.52;;;22.10;94.40;;;;;;5027870;28;20203;-96
2021/07/31 12:37:07;;;;;;;8.40;1.10;;;22.10;94.50;;;;;;5042073;28;20198;-93
2021/07/31 12:39:37;;;;;;;12.18;1.30;;;21.90;94.40;;;;;;5025521;28;20182;-94
2021/07/31 12:42:10;;;;;;;4.50;0.82;;;21.70;94.00;;;;;;5021460;28;20318;-95
2021/07/31 12:45:06;;;;;;;3.15;0.73;;;21.50;94.60;;;;;;5004843;28;20481;-95
2021/07/31 12:47:34;;;;;;;6.00;0.98;;;21.30;94.80;;;;;;5004139;28;20183;-95
2021/07/31 12:50:02;;;;;;;5.88;0.98;;;21.30;95.20;;;;;;5009787;28;20175;-96
2021/07/31 12:55:26;;;;;;;5.32;0.80;;;21.40;94.50;;;;;;5000746;28;20230;-96
2021/07/31 12:57:58;;;;;;;4.45;1.02;;;21.30;94.60;;;;;;5010934;28;20213;-95
2021/07/31 13:00:27;;;;;;;7.50;0.90;;;21.20;95.00;;;;;;5007854;28;20215;-96
2021/07/31 13:02:57;;;;;;;1.70;0.93;;;21.10;95.00;;;;;;5006912;28;20206;-96
2021/07/31 13:05:42;;;;;;;1.15;0.80;;;21.10;95.50;;;;;;5008026;28;20262;-96
2021/07/31 13:08:14;;;;;;;2.47;0.82;;;21.00;95.70;;;;;;5008914;28;20171;-96
2021/07/31 13:10:49;;;;;;;6.35;1.20;;;20.80;95.30;;;;;;5008914;28;20194;-96
2021/07/31 13:13:23;;;;;;;5.35;1.15;;;20.80;95.40;;;;;;5007372;28;20210;-96
2021/07/31 13:15:49;;;;;;;2.25;0.80;;;20.90;95.80;;;;;;5008082;28;20210;-96
2021/07/31 13:18:25;;;;;;;9.75;1.27;;;21.00;95.40;;;;;;5007839;28;20239;-96
2021/07/31 13:21:00;;;;;;;3.55;0.98;;;21.10;95.30;;;;;;5028033;28;20206;-95
2021/07/31 13:23:34;;;;;;;6.90;1.15;;;21.10;95.40;;;;;;5028823;28;20197;-96
2021/07/31 13:26:06;;;;;;;7.45;1.30;;;21.20;94.60;;;;;;5028050;28;20167;-96
2021/07/31 13:28:51;;;;;;;4.45;1.00;;;21.10;94.40;;;;;;5025907;28;20174;-94